Time,TemperatureF,DewpointF,PressureIn,WindDirection,WindDirectionDegrees,WindSpeedMPH,WindSpeedGustMPH,Humidity,HourlyPrecipIn,Conditions,Clouds,dailyrainin,SoftwareType,DateUTC
2013-05-03 00:01:00,19.0,8.0,30.81,East,100,1.0,-999.0,61,-99.99,,,-99.99,,2013-05-03 06:01:00,
2013-05-03 00:11:00,19.0,8.0,30.81,East,100,1.0,-999.0,61,-99.99,,,-99.99,,2013-05-03 06:11:00,
2013-05-03 00:21:00,19.0,7.0,30.81,ENE,76,2.0,-999.0,60,-99.99,,,-99.99,,2013-05-03 06:21:00,
2013-05-03 00:32:00,19.0,7.0,30.81,ENE,77,1.0,-999.0,60,-99.99,,,-99.99,,2013-05-03 06:32:00,
2013-05-03 00:42:00,19.0,7.0,30.81,ENE,77,1.0,-999.0,60,-99.99,,,-99.99,,2013-05-03 06:42:00,
2013-05-03 00:52:00,19.0,8.0,30.80,ENE,78,1.0,-999.0,61,-99.99,,,-99.99,,2013-05-03 06:52:00,
2013-05-03 01:01:00,19.0,7.0,30.80,ENE,74,1.0,-999.0,60,-99.99,,,-99.99,,2013-05-03 07:01:00,
2013-05-03 01:11:00,19.0,7.0,30.80,ENE,74,1.0,-999.0,60,-99.99,,,-99.99,,2013-05-03 07:11:00,
2013-05-03 01:21:00,19.0,7.0,30.79,ENE,74,1.0,-999.0,59,-99.99,,,-99.99,,2013-05-03 07:21:00,
2013-05-03 01:31:00,19.0,7.0,30.78,ENE,74,0.0,-999.0,59,-99.99,,,-99.99,,2013-05-03 07:31:00,
2013-05-03 01:42:00,19.0,7.0,30.78,ENE,74,0.0,-999.0,59,-99.99,,,-99.99,,2013-05-03 07:42:00,
2013-05-03 01:52:00,19.0,7.0,30.77,ENE,75,1.0,-999.0,58,-99.99,,,-99.99,,2013-05-03 07:52:00,
2013-05-03 02:01:00,19.0,7.0,30.76,ENE,64,1.0,-999.0,59,-99.99,,,-99.99,,2013-05-03 08:01:00,
2013-05-03 02:11:00,19.0,7.0,30.76,ENE,64,1.0,-999.0,59,-99.99,,,-99.99,,2013-05-03 08:11:00,
2013-05-03 02:21:00,19.0,6.0,30.76,ENE,69,0.0,-999.0,57,-99.99,,,-99.99,,2013-05-03 08:21:00,
2013-05-03 02:32:00,19.0,6.0,30.76,ENE,71,0.0,-999.0,56,-99.99,,,-99.99,,2013-05-03 08:32:00,
2013-05-03 02:42:00,19.0,6.0,30.76,ENE,71,0.0,-999.0,56,-99.99,,,-99.99,,2013-05-03 08:42:00,
2013-05-03 02:53:00,19.0,7.0,30.75,ENE,72,0.0,-999.0,58,-99.99,,,-99.99,,2013-05-03 08:53:00,
2013-05-03 03:01:00,19.0,6.0,30.74,ESE,112,1.0,-999.0,57,-99.99,,,-99.99,,2013-05-03 09:01:00,
2013-05-03 03:12:00,19.0,6.0,30.74,ESE,112,1.0,-999.0,57,-99.99,,,-99.99,,2013-05-03 09:12:00,
2013-05-03 03:21:00,20.0,7.0,30.73,ESE,115,1.0,-999.0,56,-99.99,,,-99.99,,2013-05-03 09:21:00,
2013-05-03 03:32:00,20.0,6.0,30.72,SSE,157,1.0,-999.0,54,-99.99,,,-99.99,,2013-05-03 09:32:00,
2013-05-03 03:42:00,20.0,6.0,30.72,SSE,157,1.0,-999.0,54,-99.99,,,-99.99,,2013-05-03 09:42:00,
2013-05-03 03:53:00,20.0,6.0,30.71,ENE,72,1.0,-999.0,53,-99.99,,,-99.99,,2013-05-03 09:53:00,
2013-05-03 04:02:00,20.0,6.0,30.71,SE,136,1.0,-999.0,53,-99.99,,,-99.99,,2013-05-03 10:02:00,
2013-05-03 04:12:00,20.0,6.0,30.71,SE,136,1.0,-999.0,53,-99.99,,,-99.99,,2013-05-03 10:12:00,
2013-05-03 04:22:00,20.0,6.0,30.71,SE,138,0.0,-999.0,54,-99.99,,,-99.99,,2013-05-03 10:22:00,
2013-05-03 04:32:00,19.0,6.0,30.69,West,261,1.0,-999.0,55,-99.99,,,-99.99,,2013-05-03 10:32:00,
2013-05-03 04:42:00,19.0,6.0,30.69,West,261,1.0,-999.0,55,-99.99,,,-99.99,,2013-05-03 10:42:00,
2013-05-03 04:52:00,19.0,6.0,30.69,SW,234,0.0,-999.0,57,-99.99,,,-99.99,,2013-05-03 10:52:00,
2013-05-03 05:02:00,18.0,5.0,30.69,SW,222,0.0,-999.0,57,-99.99,,,-99.99,,2013-05-03 11:02:00,
2013-05-03 05:11:00,18.0,5.0,30.69,SW,222,0.0,-999.0,57,-99.99,,,-99.99,,2013-05-03 11:11:00,
2013-05-03 05:22:00,18.0,6.0,30.68,SW,223,0.0,-999.0,59,-99.99,,,-99.99,,2013-05-03 11:22:00,
2013-05-03 05:31:00,17.0,5.0,30.67,SW,223,0.0,-999.0,59,-99.99,,,-99.99,,2013-05-03 11:31:00,
2013-05-03 05:42:00,17.0,5.0,30.67,SW,223,0.0,-999.0,59,-99.99,,,-99.99,,2013-05-03 11:42:00,
2013-05-03 05:52:00,17.0,6.0,30.66,SW,223,0.0,-999.0,61,-99.99,,,-99.99,,2013-05-03 11:52:00,
2013-05-03 06:01:00,16.0,5.0,30.66,SW,223,0.0,-999.0,60,-99.99,,,-99.99,,2013-05-03 12:01:00,
2013-05-03 06:11:00,16.0,5.0,30.66,SW,223,0.0,-999.0,60,-99.99,,,-99.99,,2013-05-03 12:11:00,
2013-05-03 06:21:00,16.0,5.0,30.65,SW,223,0.0,-999.0,61,-99.99,,,-99.99,,2013-05-03 12:21:00,
2013-05-03 06:32:00,15.0,5.0,30.66,SW,223,0.0,-999.0,65,-99.99,,,-99.99,,2013-05-03 12:32:00,
2013-05-03 06:42:00,15.0,5.0,30.66,SW,223,0.0,-999.0,65,-99.99,,,-99.99,,2013-05-03 12:42:00,
2013-05-03 06:52:00,14.0,5.0,30.66,SW,223,1.0,-999.0,67,-99.99,,,-99.99,,2013-05-03 12:52:00,
2013-05-03 07:01:00,14.0,6.0,30.65,SW,223,0.0,-999.0,69,-99.99,,,-99.99,,2013-05-03 13:01:00,
2013-05-03 07:11:00,14.0,6.0,30.65,SW,223,0.0,-999.0,69,-99.99,,,-99.99,,2013-05-03 13:11:00,
2013-05-03 07:22:00,14.0,6.0,30.64,SW,223,0.0,-999.0,71,-99.99,,,-99.99,,2013-05-03 13:22:00,
2013-05-03 07:32:00,15.0,8.0,30.64,SW,223,0.0,-999.0,72,-99.99,,,-99.99,,2013-05-03 13:32:00,
2013-05-03 07:42:00,15.0,8.0,30.64,SW,223,0.0,-999.0,72,-99.99,,,-99.99,,2013-05-03 13:42:00,
2013-05-03 07:52:00,16.0,8.0,30.63,SW,223,0.0,-999.0,70,-99.99,,,-99.99,,2013-05-03 13:52:00,
2013-05-03 08:02:00,18.0,6.0,30.62,SW,223,0.0,-999.0,60,-99.99,,,-99.99,,2013-05-03 14:02:00,
2013-05-03 08:11:00,18.0,6.0,30.62,SW,223,0.0,-999.0,60,-99.99,,,-99.99,,2013-05-03 14:11:00,
2013-05-03 08:22:00,22.0,8.0,30.61,SW,223,0.0,-999.0,53,-99.99,,,-99.99,,2013-05-03 14:22:00,
2013-05-03 08:32:00,24.0,8.0,30.60,SW,223,0.0,-999.0,49,-99.99,,,-99.99,,2013-05-03 14:32:00,
2013-05-03 08:42:00,24.0,8.0,30.60,SW,223,0.0,-999.0,49,-99.99,,,-99.99,,2013-05-03 14:42:00,
2013-05-03 08:52:00,27.0,8.0,30.58,West,273,1.0,-999.0,44,-99.99,,,-99.99,,2013-05-03 14:52:00,
2013-05-03 09:01:00,29.0,7.0,30.57,West,263,1.0,-999.0,39,-99.99,,,-99.99,,2013-05-03 15:01:00,
2013-05-03 09:11:00,29.0,7.0,30.57,West,263,1.0,-999.0,39,-99.99,,,-99.99,,2013-05-03 15:11:00,
2013-05-03 09:22:00,31.0,8.0,30.56,WSW,250,1.0,-999.0,37,-99.99,,,-99.99,,2013-05-03 15:22:00,
2013-05-03 09:32:00,33.0,6.0,30.55,SW,216,2.0,-999.0,32,-99.99,,,-99.99,,2013-05-03 15:32:00,
2013-05-03 09:43:00,33.0,6.0,30.55,SW,216,2.0,-999.0,32,-99.99,,,-99.99,,2013-05-03 15:43:00,
2013-05-03 09:53:00,34.0,9.0,30.53,WSW,242,1.0,-999.0,34,-99.99,,,-99.99,,2013-05-03 15:53:00,
2013-05-03 10:03:00,34.0,9.0,30.53,WSW,253,2.0,-999.0,34,-99.99,,,-99.99,,2013-05-03 16:03:00,
2013-05-03 10:12:00,34.0,9.0,30.53,WSW,253,2.0,-999.0,34,-99.99,,,-99.99,,2013-05-03 16:12:00,
2013-05-03 10:22:00,35.0,12.0,30.52,SW,227,2.0,-999.0,38,-99.99,,,-99.99,,2013-05-03 16:22:00,
2013-05-03 10:32:00,35.0,12.0,30.51,West,263,1.0,-999.0,38,-99.99,,,-99.99,,2013-05-03 16:32:00,
2013-05-03 10:42:00,35.0,12.0,30.51,West,263,1.0,-999.0,38,-99.99,,,-99.99,,2013-05-03 16:42:00,
2013-05-03 10:52:00,36.0,8.0,30.50,NNW,338,1.0,-999.0,31,-99.99,,,-99.99,,2013-05-03 16:52:00,
2013-05-03 11:02:00,37.0,14.0,30.48,WNW,298,1.0,-999.0,39,-99.99,,,-99.99,,2013-05-03 17:02:00,
2013-05-03 11:12:00,37.0,14.0,30.48,WNW,298,1.0,-999.0,39,-99.99,,,-99.99,,2013-05-03 17:12:00,
2013-05-03 11:23:00,38.0,10.0,30.48,NW,309,1.0,-999.0,31,-99.99,,,-99.99,,2013-05-03 17:23:00,
2013-05-03 11:32:00,38.0,10.0,30.47,West,267,2.0,-999.0,31,-99.99,,,-99.99,,2013-05-03 17:32:00,
2013-05-03 11:42:00,38.0,10.0,30.47,West,267,2.0,-999.0,31,-99.99,,,-99.99,,2013-05-03 17:42:00,
2013-05-03 11:52:00,38.0,10.0,30.47,WSW,248,1.0,-999.0,31,-99.99,,,-99.99,,2013-05-03 17:52:00,
2013-05-03 12:01:00,38.0,11.0,30.45,NW,309,1.0,-999.0,33,-99.99,,,-99.99,,2013-05-03 18:01:00,
2013-05-03 12:12:00,38.0,11.0,30.45,NW,309,1.0,-999.0,33,-99.99,,,-99.99,,2013-05-03 18:12:00,
2013-05-03 12:21:00,38.0,11.0,30.43,NNW,328,3.0,-999.0,33,-99.99,,,-99.99,,2013-05-03 18:21:00,
2013-05-03 12:32:00,39.0,12.0,30.43,WNW,289,2.0,-999.0,33,-99.99,,,-99.99,,2013-05-03 18:32:00,
2013-05-03 12:42:00,39.0,12.0,30.43,WNW,289,2.0,-999.0,33,-99.99,,,-99.99,,2013-05-03 18:42:00,
2013-05-03 12:52:00,40.0,10.0,30.42,SW,230,3.0,-999.0,29,-99.99,,,-99.99,,2013-05-03 18:52:00,
2013-05-03 13:01:00,41.0,10.0,30.42,West,259,2.0,-999.0,27,-99.99,,,-99.99,,2013-05-03 19:01:00,
2013-05-03 13:11:00,41.0,10.0,30.42,West,259,2.0,-999.0,27,-99.99,,,-99.99,,2013-05-03 19:11:00,
2013-05-03 13:21:00,42.0,10.0,30.41,SW,227,2.0,-999.0,26,-99.99,,,-99.99,,2013-05-03 19:21:00,
2013-05-03 13:32:00,43.0,9.0,30.40,SSW,211,2.0,-999.0,24,-99.99,,,-99.99,,2013-05-03 19:32:00,
2013-05-03 13:41:00,43.0,9.0,30.40,SSW,211,2.0,-999.0,24,-99.99,,,-99.99,,2013-05-03 19:41:00,
2013-05-03 13:52:00,43.0,11.0,30.39,SW,222,2.0,-999.0,27,-99.99,,,-99.99,,2013-05-03 19:52:00,
2013-05-03 14:02:00,43.0,11.0,30.39,South,190,2.0,-999.0,27,-99.99,,,-99.99,,2013-05-03 20:02:00,
2013-05-03 14:11:00,43.0,11.0,30.39,South,190,2.0,-999.0,27,-99.99,,,-99.99,,2013-05-03 20:11:00,
2013-05-03 14:21:00,43.0,10.0,30.37,SW,219,2.0,-999.0,26,-99.99,,,-99.99,,2013-05-03 20:21:00,
2013-05-03 14:31:00,44.0,14.0,30.35,SSW,211,1.0,-999.0,29,-99.99,,,-99.99,,2013-05-03 20:31:00,
2013-05-03 14:42:00,44.0,14.0,30.35,SSW,211,1.0,-999.0,29,-99.99,,,-99.99,,2013-05-03 20:42:00,
2013-05-03 14:52:00,44.0,12.0,30.35,West,272,2.0,-999.0,27,-99.99,,,-99.99,,2013-05-03 20:52:00,
2013-05-03 15:01:00,45.0,15.0,30.33,ESE,107,1.0,-999.0,30,-99.99,,,-99.99,,2013-05-03 21:01:00,
2013-05-03 15:11:00,45.0,15.0,30.33,ESE,107,1.0,-999.0,30,-99.99,,,-99.99,,2013-05-03 21:11:00,
2013-05-03 15:21:00,45.0,13.0,30.32,East,81,1.0,-999.0,27,-99.99,,,-99.99,,2013-05-03 21:21:00,
2013-05-03 15:33:00,45.0,13.0,30.32,SSW,207,2.0,-999.0,27,-99.99,,,-99.99,,2013-05-03 21:33:00,
2013-05-03 15:42:00,45.0,13.0,30.32,SSW,207,2.0,-999.0,27,-99.99,,,-99.99,,2013-05-03 21:42:00,
2013-05-03 15:53:00,44.0,13.0,30.31,NNW,334,2.0,-999.0,28,-99.99,,,-99.99,,2013-05-03 21:53:00,
2013-05-03 16:02:00,44.0,11.0,30.29,SW,217,2.0,-999.0,26,-99.99,,,-99.99,,2013-05-03 22:02:00,
2013-05-03 16:12:00,44.0,11.0,30.29,SW,217,2.0,-999.0,26,-99.99,,,-99.99,,2013-05-03 22:12:00,
2013-05-03 16:22:00,44.0,11.0,30.29,West,276,2.0,-999.0,26,-99.99,,,-99.99,,2013-05-03 22:22:00,
2013-05-03 16:32:00,44.0,13.0,30.28,NE,40,1.0,-999.0,28,-99.99,,,-99.99,,2013-05-03 22:32:00,
2013-05-03 16:42:00,44.0,13.0,30.28,NE,40,1.0,-999.0,28,-99.99,,,-99.99,,2013-05-03 22:42:00,
2013-05-03 16:52:00,45.0,16.0,30.28,SSW,213,1.0,-999.0,31,-99.99,,,-99.99,,2013-05-03 22:52:00,
2013-05-03 17:02:00,44.0,15.0,30.26,SW,230,1.0,-999.0,30,-99.99,,,-99.99,,2013-05-03 23:02:00,
2013-05-03 17:11:00,44.0,15.0,30.26,SW,230,1.0,-999.0,30,-99.99,,,-99.99,,2013-05-03 23:11:00,
2013-05-03 17:21:00,45.0,11.0,30.26,SE,142,1.0,-999.0,25,-99.99,,,-99.99,,2013-05-03 23:21:00,
2013-05-03 17:31:00,45.0,14.0,30.26,East,82,1.0,-999.0,28,-99.99,,,-99.99,,2013-05-03 23:31:00,
2013-05-03 17:41:00,45.0,14.0,30.26,East,82,1.0,-999.0,28,-99.99,,,-99.99,,2013-05-03 23:41:00,
2013-05-03 17:52:00,45.0,11.0,30.25,ENE,64,2.0,-999.0,25,-99.99,,,-99.99,,2013-05-03 23:52:00,
2013-05-03 18:01:00,44.0,11.0,30.24,SE,126,1.0,-999.0,26,-99.99,,,-99.99,,2013-05-04 00:01:00,
2013-05-03 18:11:00,44.0,11.0,30.24,SE,126,1.0,-999.0,26,-99.99,,,-99.99,,2013-05-04 00:11:00,
2013-05-03 18:22:00,44.0,15.0,30.24,NNE,32,1.0,-999.0,31,-99.99,,,-99.99,,2013-05-04 00:22:00,
2013-05-03 18:31:00,44.0,13.0,30.23,North,5,0.0,-999.0,28,-99.99,,,-99.99,,2013-05-04 00:31:00,
2013-05-03 18:41:00,44.0,13.0,30.23,North,5,0.0,-999.0,28,-99.99,,,-99.99,,2013-05-04 00:41:00,
2013-05-03 18:52:00,43.0,17.0,30.22,NNE,17,0.0,-999.0,34,-99.99,,,-99.99,,2013-05-04 00:52:00,
2013-05-03 19:01:00,42.0,18.0,30.23,NNE,15,0.0,-999.0,37,-99.99,,,-99.99,,2013-05-04 01:01:00,
2013-05-03 19:11:00,42.0,18.0,30.23,NNE,15,0.0,-999.0,37,-99.99,,,-99.99,,2013-05-04 01:11:00,
2013-05-03 19:21:00,41.0,17.0,30.23,NNE,15,0.0,-999.0,38,-99.99,,,-99.99,,2013-05-04 01:21:00,
2013-05-03 19:31:00,40.0,15.0,30.22,NNE,15,0.0,-999.0,36,-99.99,,,-99.99,,2013-05-04 01:31:00,
2013-05-03 19:41:00,40.0,15.0,30.22,NNE,15,0.0,-999.0,36,-99.99,,,-99.99,,2013-05-04 01:41:00,
2013-05-03 19:52:00,39.0,19.0,30.22,NNE,15,0.0,-999.0,45,-99.99,,,-99.99,,2013-05-04 01:52:00,
2013-05-03 20:02:00,37.0,19.0,30.22,NNE,15,0.0,-999.0,47,-99.99,,,-99.99,,2013-05-04 02:02:00,
2013-05-03 20:11:00,37.0,19.0,30.22,NNE,15,0.0,-999.0,47,-99.99,,,-99.99,,2013-05-04 02:11:00,
2013-05-03 20:21:00,37.0,21.0,30.23,ENE,59,0.0,-999.0,51,-99.99,,,-99.99,,2013-05-04 02:21:00,
2013-05-03 20:32:00,36.0,21.0,30.23,SSW,205,0.0,-999.0,53,-99.99,,,-99.99,,2013-05-04 02:32:00,
2013-05-03 20:41:00,36.0,21.0,30.23,SSW,205,0.0,-999.0,53,-99.99,,,-99.99,,2013-05-04 02:41:00,
2013-05-03 20:52:00,35.0,20.0,30.24,SSW,205,0.0,-999.0,55,-99.99,,,-99.99,,2013-05-04 02:52:00,
2013-05-03 21:02:00,34.0,20.0,30.24,SSW,204,0.0,-999.0,56,-99.99,,,-99.99,,2013-05-04 03:02:00,
2013-05-03 21:11:00,34.0,20.0,30.24,SSW,204,0.0,-999.0,56,-99.99,,,-99.99,,2013-05-04 03:11:00,
2013-05-03 21:22:00,33.0,19.0,30.25,SSW,201,0.0,-999.0,57,-99.99,,,-99.99,,2013-05-04 03:22:00,
2013-05-03 21:33:00,32.0,18.0,30.25,SSW,201,0.0,-999.0,56,-99.99,,,-99.99,,2013-05-04 03:33:00,
2013-05-03 21:43:00,32.0,18.0,30.25,SSW,201,0.0,-999.0,56,-99.99,,,-99.99,,2013-05-04 03:43:00,
2013-05-03 21:53:00,31.0,19.0,30.25,SSW,201,0.0,-999.0,61,-99.99,,,-99.99,,2013-05-04 03:53:00,
2013-05-03 22:02:00,31.0,20.0,30.26,SSW,201,0.0,-999.0,62,-99.99,,,-99.99,,2013-05-04 04:02:00,
2013-05-03 22:12:00,31.0,20.0,30.26,SSW,201,0.0,-999.0,62,-99.99,,,-99.99,,2013-05-04 04:12:00,
2013-05-03 22:22:00,30.0,19.0,30.27,SSW,201,0.0,-999.0,63,-99.99,,,-99.99,,2013-05-04 04:22:00,
2013-05-03 22:32:00,29.0,18.0,30.27,SSW,201,0.0,-999.0,63,-99.99,,,-99.99,,2013-05-04 04:32:00,
2013-05-03 22:42:00,29.0,18.0,30.27,SSW,201,0.0,-999.0,63,-99.99,,,-99.99,,2013-05-04 04:42:00,
2013-05-03 22:52:00,29.0,19.0,30.25,SSW,201,0.0,-999.0,65,-99.99,,,-99.99,,2013-05-04 04:52:00,
2013-05-03 23:02:00,28.0,17.0,30.24,SSW,201,0.0,-999.0,64,-99.99,,,-99.99,,2013-05-04 05:02:00,
2013-05-03 23:11:00,28.0,17.0,30.24,SSW,201,0.0,-999.0,64,-99.99,,,-99.99,,2013-05-04 05:11:00,
2013-05-03 23:22:00,28.0,17.0,30.24,SSW,201,0.0,-999.0,64,-99.99,,,-99.99,,2013-05-04 05:22:00,
2013-05-03 23:32:00,28.0,17.0,30.23,SSW,201,0.0,-999.0,64,-99.99,,,-99.99,,2013-05-04 05:32:00,
2013-05-03 23:42:00,28.0,17.0,30.23,SSW,201,0.0,-999.0,64,-99.99,,,-99.99,,2013-05-04 05:42:00,
2013-05-03 23:52:00,27.0,17.0,30.23,SSW,201,0.0,-999.0,65,-99.99,,,-99.99,,2013-05-04 05:52:00,